createdAt,value
2018-11-20T00:04:41.033Z,10.40
2018-11-20T00:08:54.428Z,9.00
2018-11-20T00:13:07.943Z,10.33
2018-11-20T00:17:29.400Z,10.13
2018-11-20T00:21:43.069Z,10.27
2018-11-20T00:25:56.666Z,9.13
2018-11-20T00:30:10.081Z,10.27
2018-11-20T00:34:29.457Z,10.60
2018-11-20T00:38:42.912Z,11.90
2018-11-20T00:42:57.318Z,9.10
2018-11-20T00:48:09.045Z,9.90
2018-11-20T00:52:22.696Z,10.80
2018-11-20T00:56:37.226Z,9.30
2018-11-20T01:00:50.456Z,10.40
2018-11-20T01:05:34.047Z,10.20
2018-11-20T01:09:49.510Z,10.80
2018-11-20T01:15:04.580Z,10.53
2018-11-20T01:19:25.793Z,12.10
2018-11-20T01:23:42.130Z,10.83
2018-11-20T01:27:54.537Z,11.00
2018-11-20T01:32:07.876Z,11.23
2018-11-20T01:38:27.188Z,10.63
2018-11-20T01:42:40.894Z,11.70
2018-11-20T01:46:54.510Z,10.90
2018-11-20T01:51:07.994Z,11.27
2018-11-20T01:55:21.624Z,12.63
2018-11-20T01:59:35.892Z,11.10
2018-11-20T02:03:48.317Z,14.00
2018-11-20T02:08:21.813Z,12.47
2018-11-20T02:12:35.274Z,14.07
2018-11-20T02:16:52.353Z,13.20
2018-11-20T02:21:06.015Z,14.10
2018-11-20T02:25:38.464Z,12.67
2018-11-20T02:29:52.776Z,13.73
2018-11-20T02:34:07.121Z,10.60
2018-11-20T02:38:20.559Z,11.63
2018-11-20T02:42:41.209Z,13.67
2018-11-20T02:46:54.854Z,13.03
2018-11-20T02:51:09.318Z,12.43
2018-11-20T02:55:22.864Z,12.50
2018-11-20T02:59:45.323Z,12.90
2018-11-20T03:03:58.710Z,14.03
2018-11-20T03:08:14.988Z,13.70
2018-11-20T03:12:32.276Z,12.97
2018-11-20T03:17:44.095Z,13.53
2018-11-20T03:22:02.512Z,13.10
2018-11-20T03:27:17.428Z,14.40
2018-11-20T03:31:31.758Z,11.70
2018-11-20T03:35:50.063Z,13.23
2018-11-20T03:42:05.623Z,13.93
2018-11-20T03:46:19.215Z,14.87
2018-11-20T03:50:34.643Z,12.80
2018-11-20T03:54:48.884Z,15.70
2018-11-20T03:59:09.148Z,14.33
2018-11-20T04:03:21.539Z,15.27
2018-11-20T04:07:34.936Z,14.10
2018-11-20T04:11:53.311Z,14.37
2018-11-20T04:16:05.747Z,14.83
2018-11-20T04:20:19.168Z,13.17
2018-11-20T04:24:32.787Z,14.03
2018-11-20T04:28:45.176Z,13.90
2018-11-20T04:33:11.017Z,15.17
2018-11-20T04:37:24.854Z,14.60
2018-11-20T04:41:38.240Z,15.43
2018-11-20T04:45:51.904Z,15.50
2018-11-20T04:50:04.331Z,14.60
2018-11-20T04:56:22.559Z,15.20
2018-11-20T05:00:40.965Z,14.30
2018-11-20T05:04:57.259Z,14.27
2018-11-20T05:09:24.747Z,14.90
2018-11-20T05:13:38.511Z,14.90
2018-11-20T05:17:51.951Z,14.30
2018-11-20T05:22:09.171Z,15.80
2018-11-20T05:26:21.544Z,15.33
2018-11-20T05:30:44.979Z,14.90
2018-11-20T05:34:58.425Z,14.33
2018-11-20T05:39:14.631Z,15.23
2018-11-20T05:43:27.760Z,15.43
2018-11-20T05:47:55.043Z,14.53
2018-11-20T05:52:08.306Z,14.77
2018-11-20T05:56:39.695Z,15.90
2018-11-20T06:00:53.204Z,14.00
2018-11-20T06:06:04.236Z,15.87
2018-11-20T06:10:24.388Z,14.10
2018-11-20T06:14:55.795Z,14.20
2018-11-20T06:19:14.112Z,16.83
2018-11-20T06:23:26.483Z,14.50
2018-11-20T06:27:40.067Z,15.93
2018-11-20T06:31:56.196Z,15.30
2018-11-20T06:36:21.648Z,14.90
2018-11-20T06:41:08.265Z,16.00
2018-11-20T06:45:24.380Z,16.60
2018-11-20T06:49:36.747Z,15.33
2018-11-20T06:53:50.033Z,14.73
2018-11-20T06:58:02.407Z,14.67
2018-11-20T07:03:19.456Z,15.70
2018-11-20T07:07:37.113Z,14.27
2018-11-20T07:11:50.477Z,17.40
2018-11-20T07:16:15.621Z,17.00
2018-11-20T07:20:35.056Z,15.97
2018-11-20T07:24:49.360Z,17.13
2018-11-20T07:31:05.017Z,16.03
2018-11-20T07:35:17.316Z,15.30
2018-11-20T07:39:39.772Z,15.80
2018-11-20T07:44:51.912Z,21.10
2018-11-20T07:51:07.720Z,19.33
2018-11-20T07:55:21.146Z,35.70
2018-11-20T07:59:38.339Z,21.50
2018-11-20T08:03:56.823Z,22.40
2018-11-20T08:08:11.313Z,17.93
2018-11-20T08:12:24.948Z,15.70
2018-11-20T08:16:44.473Z,20.47
2018-11-20T08:20:59.770Z,16.30
2018-11-20T08:25:32.327Z,15.90
2018-11-20T08:29:45.462Z,16.10
2018-11-20T08:33:59.592Z,15.30
2018-11-20T08:38:15.876Z,14.60
2018-11-20T08:42:28.278Z,16.33
2018-11-20T08:46:43.619Z,16.60
2018-11-20T08:50:55.984Z,15.60
2018-11-20T08:56:09.165Z,16.30
2018-11-20T09:00:21.560Z,12.63
2018-11-20T09:05:05.319Z,16.43
2018-11-20T09:09:18.936Z,16.63
2018-11-20T09:13:33.136Z,16.67
2018-11-20T09:17:46.588Z,14.47
2018-11-20T09:24:06.142Z,16.80
2018-11-20T09:28:19.648Z,15.70
2018-11-20T09:32:33.224Z,16.13
2018-11-20T09:36:45.620Z,15.50
2018-11-20T09:41:02.951Z,17.23
2018-11-20T09:47:28.556Z,16.17
2018-11-20T09:51:41.708Z,16.53
2018-11-20T09:56:03.059Z,17.80
2018-11-20T10:00:16.555Z,16.60
2018-11-20T10:05:30.939Z,16.87
2018-11-20T10:09:43.439Z,17.50
2018-11-20T10:14:01.835Z,17.00
2018-11-20T10:18:24.142Z,14.70
2018-11-20T10:22:37.654Z,16.03
2018-11-20T10:26:51.067Z,15.80
2018-11-20T10:31:10.423Z,16.00
2018-11-20T10:35:24.874Z,15.47
2018-11-20T10:39:40.215Z,16.63
2018-11-20T10:43:53.772Z,15.40
2018-11-20T10:48:14.929Z,17.50
2018-11-20T10:52:47.563Z,18.90
2018-11-20T10:57:04.007Z,16.70
2018-11-20T11:01:17.571Z,16.40
2018-11-20T11:05:32.351Z,16.00
2018-11-20T11:09:49.824Z,20.00
2018-11-20T11:14:07.067Z,19.63
2018-11-20T11:18:23.554Z,16.90
2018-11-20T11:23:09.923Z,16.30
2018-11-20T11:27:23.673Z,16.30
2018-11-20T11:32:36.825Z,17.90
2018-11-20T11:36:49.174Z,17.50
2018-11-20T11:41:02.932Z,16.80
2018-11-20T11:45:16.470Z,16.43
2018-11-20T11:49:44.513Z,16.77
2018-11-20T11:54:00.011Z,17.50
2018-11-20T12:00:16.109Z,16.33
